Time,TemperatureF,DewpointF,PressureIn,WindDirection,WindDirectionDegrees,WindSpeedMPH,WindSpeedGustMPH,Humidity,HourlyPrecipIn,Conditions,Clouds,dailyrainin,SoftwareType,DateUTC
2013-05-11 00:01:00,70.9,62.6,29.91,WNW,290,0.0,0.0,75,0.00,,,0.00,LWC V2.00 B2112,2013-05-11 04:01:00,
2013-05-11 00:06:00,70.9,62.6,29.91,WNW,290,0.0,0.0,75,0.00,,,0.00,LWC V2.00 B2112,2013-05-11 04:06:00,
2013-05-11 00:11:00,70.8,62.8,29.91,WNW,290,0.0,0.0,76,0.00,,,0.00,LWC V2.00 B2112,2013-05-11 04:11:00,
2013-05-11 00:16:00,70.8,62.8,29.91,WNW,290,0.0,0.0,76,0.00,,,0.00,LWC V2.00 B2112,2013-05-11 04:16:00,
2013-05-11 00:21:00,70.8,62.8,29.91,WNW,290,0.0,0.0,76,0.00,,,0.00,LWC V2.00 B2112,2013-05-11 04:21:00,
2013-05-11 00:26:00,70.6,62.7,29.92,WNW,290,0.0,0.0,76,0.00,,,0.00,LWC V2.00 B2112,2013-05-11 04:26:00,
2013-05-11 00:31:00,70.6,62.7,29.92,WNW,290,0.0,0.0,76,0.00,,,0.00,LWC V2.00 B2112,2013-05-11 04:31:00,
2013-05-11 00:36:00,70.4,62.5,29.92,WNW,290,0.0,0.0,76,0.00,,,0.00,LWC V2.00 B2112,2013-05-11 04:36:00,
2013-05-11 00:41:00,70.4,62.5,29.91,WNW,290,0.0,0.0,76,0.00,,,0.00,LWC V2.00 B2112,2013-05-11 04:41:00,
2013-05-11 00:46:00,70.4,62.5,29.91,WNW,290,0.0,0.0,76,0.00,,,0.00,LWC V2.00 B2112,2013-05-11 04:46:00,
2013-05-11 00:51:00,70.4,62.5,29.91,WNW,290,0.0,0.0,76,0.00,,,0.00,LWC V2.00 B2112,2013-05-11 04:51:00,
2013-05-11 00:56:00,70.4,62.5,29.91,WNW,290,0.0,0.0,76,0.00,,,0.00,LWC V2.00 B2112,2013-05-11 04:56:00,
2013-05-11 01:01:00,70.4,62.5,29.91,WNW,290,0.0,0.0,76,0.00,,,0.00,LWC V2.00 B2112,2013-05-11 05:01:00,
2013-05-11 01:06:00,70.4,62.5,29.91,WNW,290,0.0,0.0,76,0.00,,,0.00,LWC V2.00 B2112,2013-05-11 05:06:00,
2013-05-11 01:11:00,70.3,62.4,29.91,WNW,290,0.0,0.0,76,0.00,,,0.00,LWC V2.00 B2112,2013-05-11 05:11:00,
2013-05-11 01:16:00,70.3,62.4,29.91,WNW,290,0.0,0.0,76,0.00,,,0.00,LWC V2.00 B2112,2013-05-11 05:16:00,
2013-05-11 01:21:00,70.3,62.7,29.91,WNW,290,0.0,0.0,77,0.00,,,0.00,LWC V2.00 B2112,2013-05-11 05:21:00,
2013-05-11 01:26:00,70.3,62.7,29.91,WNW,290,0.0,0.0,77,0.00,,,0.00,LWC V2.00 B2112,2013-05-11 05:26:00,
2013-05-11 01:31:00,70.1,62.5,29.91,WNW,290,0.0,0.0,77,0.00,,,0.00,LWC V2.00 B2112,2013-05-11 05:31:00,
2013-05-11 01:36:00,70.1,62.9,29.91,WNW,290,0.0,0.0,78,0.00,,,0.00,LWC V2.00 B2112,2013-05-11 05:36:00,
2013-05-11 01:41:00,69.9,62.7,29.91,WNW,290,0.0,0.0,78,0.00,,,0.00,LWC V2.00 B2112,2013-05-11 05:41:00,
2013-05-11 01:46:00,69.9,63.1,29.91,WNW,290,0.0,0.0,79,0.00,,,0.00,LWC V2.00 B2112,2013-05-11 05:46:00,
2013-05-11 01:51:00,69.9,63.1,29.91,NE,42,0.0,0.0,79,0.00,,,0.00,LWC V2.00 B2112,2013-05-11 05:51:00,
2013-05-11 01:56:00,69.8,63.0,29.91,NE,42,0.0,0.0,79,0.00,,,0.00,LWC V2.00 B2112,2013-05-11 05:56:00,
2013-05-11 02:01:00,69.8,62.6,29.91,NE,42,0.0,0.0,78,0.00,,,0.00,LWC V2.00 B2112,2013-05-11 06:01:00,
2013-05-11 02:06:00,69.8,62.6,29.91,NE,42,0.0,0.0,78,0.00,,,0.00,LWC V2.00 B2112,2013-05-11 06:06:00,
2013-05-11 02:11:00,69.8,62.3,29.90,NE,42,0.0,0.0,77,0.00,,,0.00,LWC V2.00 B2112,2013-05-11 06:11:00,
2013-05-11 02:16:00,69.8,62.3,29.90,NE,42,0.0,0.0,77,0.00,,,0.00,LWC V2.00 B2112,2013-05-11 06:16:00,
2013-05-11 02:21:00,69.8,62.3,29.90,NE,42,0.0,0.0,77,0.00,,,0.00,LWC V2.00 B2112,2013-05-11 06:21:00,
2013-05-11 02:26:00,69.8,61.9,29.90,NE,42,0.0,0.0,76,0.00,,,0.00,LWC V2.00 B2112,2013-05-11 06:26:00,
2013-05-11 02:31:00,69.8,62.3,29.90,NE,42,0.0,0.0,77,0.00,,,0.00,LWC V2.00 B2112,2013-05-11 06:31:00,
2013-05-11 02:36:00,69.8,62.3,29.90,NE,42,0.0,0.0,77,0.00,,,0.00,LWC V2.00 B2112,2013-05-11 06:36:00,
2013-05-11 02:41:00,69.6,62.4,29.90,NE,42,0.0,0.0,78,0.00,,,0.00,LWC V2.00 B2112,2013-05-11 06:41:00,
2013-05-11 02:46:00,69.6,62.8,29.90,NE,42,0.0,0.0,79,0.00,,,0.00,LWC V2.00 B2112,2013-05-11 06:46:00,
2013-05-11 02:51:00,69.6,62.8,29.90,NE,42,0.0,0.0,79,0.00,,,0.00,LWC V2.00 B2112,2013-05-11 06:51:00,
2013-05-11 02:56:00,69.4,62.6,29.89,NE,42,0.0,0.0,79,0.00,,,0.00,LWC V2.00 B2112,2013-05-11 06:56:00,
2013-05-11 03:01:00,69.3,62.9,29.89,NE,42,0.0,0.0,80,0.00,,,0.00,LWC V2.00 B2112,2013-05-11 07:01:00,
2013-05-11 03:06:00,69.3,62.5,29.89,NE,42,0.0,0.0,79,0.00,,,0.00,LWC V2.00 B2112,2013-05-11 07:06:00,
2013-05-11 03:11:00,69.1,62.7,29.89,NE,42,0.0,0.0,80,0.00,,,0.00,LWC V2.00 B2112,2013-05-11 07:11:00,
2013-05-11 03:16:00,69.1,62.7,29.89,NE,42,0.0,0.0,80,0.00,,,0.00,LWC V2.00 B2112,2013-05-11 07:16:00,
2013-05-11 03:21:00,68.9,62.5,29.89,NE,42,0.0,0.0,80,0.00,,,0.00,LWC V2.00 B2112,2013-05-11 07:21:00,
2013-05-11 03:26:00,68.8,62.4,29.89,NE,42,0.0,0.0,80,0.00,,,0.00,LWC V2.00 B2112,2013-05-11 07:26:00,
2013-05-11 03:31:00,68.8,62.4,29.89,NE,42,0.0,0.0,80,0.00,,,0.00,LWC V2.00 B2112,2013-05-11 07:31:00,
2013-05-11 03:36:00,68.6,62.2,29.89,NE,42,0.0,0.0,80,0.00,,,0.00,LWC V2.00 B2112,2013-05-11 07:36:00,
2013-05-11 03:41:00,68.6,62.2,29.88,NE,42,0.0,0.0,80,0.00,,,0.00,LWC V2.00 B2112,2013-05-11 07:41:00,
2013-05-11 03:46:00,68.4,62.0,29.88,NE,42,0.0,0.0,80,0.00,,,0.00,LWC V2.00 B2112,2013-05-11 07:46:00,
2013-05-11 03:51:00,68.4,62.3,29.88,NE,42,0.0,0.0,81,0.00,,,0.00,LWC V2.00 B2112,2013-05-11 07:51:00,
2013-05-11 03:56:00,68.4,62.3,29.88,NE,42,0.0,0.0,81,0.00,,,0.00,LWC V2.00 B2112,2013-05-11 07:56:00,
2013-05-11 04:01:00,68.3,61.9,29.88,NE,42,0.0,0.0,80,0.00,,,0.00,LWC V2.00 B2112,2013-05-11 08:01:00,
2013-05-11 04:06:00,68.3,61.9,29.88,NE,42,0.0,0.0,80,0.00,,,0.00,LWC V2.00 B2112,2013-05-11 08:06:00,
2013-05-11 04:11:00,68.3,61.9,29.88,NE,42,0.0,0.0,80,0.00,,,0.00,LWC V2.00 B2112,2013-05-11 08:11:00,
2013-05-11 04:16:00,68.3,61.9,29.88,NE,42,0.0,0.0,80,0.00,,,0.00,LWC V2.00 B2112,2013-05-11 08:16:00,
2013-05-11 04:21:00,68.3,61.9,29.88,NE,42,0.0,0.0,80,0.00,,,0.00,LWC V2.00 B2112,2013-05-11 08:21:00,
2013-05-11 04:26:00,68.3,61.5,29.88,NE,42,0.0,0.0,79,0.00,,,0.00,LWC V2.00 B2112,2013-05-11 08:26:00,
2013-05-11 04:31:00,68.3,61.5,29.88,NE,42,0.0,0.0,79,0.00,,,0.00,LWC V2.00 B2112,2013-05-11 08:31:00,
2013-05-11 04:36:00,68.3,61.9,29.88,NE,42,0.0,0.0,80,0.00,,,0.00,LWC V2.00 B2112,2013-05-11 08:36:00,
2013-05-11 04:41:00,68.3,61.5,29.88,NE,42,0.0,0.0,79,0.00,,,0.00,LWC V2.00 B2112,2013-05-11 08:41:00,
2013-05-11 04:46:00,68.3,61.5,29.88,NE,42,0.0,0.0,79,0.00,,,0.00,LWC V2.00 B2112,2013-05-11 08:46:00,
2013-05-11 04:51:00,68.3,61.2,29.88,NE,42,0.0,0.0,78,0.00,,,0.00,LWC V2.00 B2112,2013-05-11 08:51:00,
2013-05-11 04:56:00,68.1,60.6,29.88,NE,42,0.0,0.0,77,0.00,,,0.00,LWC V2.00 B2112,2013-05-11 08:56:00,
2013-05-11 05:01:00,68.1,61.0,29.88,NE,42,0.0,0.0,78,0.00,,,0.00,LWC V2.00 B2112,2013-05-11 09:01:00,
2013-05-11 05:06:00,68.1,60.2,29.88,NE,42,0.0,0.0,76,0.00,,,0.00,LWC V2.00 B2112,2013-05-11 09:06:00,
2013-05-11 05:11:00,68.3,60.8,29.88,NE,42,0.0,1.0,77,0.00,,,0.00,LWC V2.00 B2112,2013-05-11 09:11:00,
2013-05-11 05:16:00,68.3,61.2,29.88,NE,42,0.0,0.0,78,0.00,,,0.00,LWC V2.00 B2112,2013-05-11 09:16:00,
2013-05-11 05:21:00,68.3,61.2,29.88,NE,42,0.0,0.0,78,0.00,,,0.00,LWC V2.00 B2112,2013-05-11 09:21:00,
2013-05-11 05:26:00,68.3,61.5,29.88,NE,42,0.0,0.0,79,0.00,,,0.00,LWC V2.00 B2112,2013-05-11 09:26:00,
2013-05-11 05:31:00,68.1,59.9,29.88,NE,42,0.0,0.0,75,0.00,,,0.00,LWC V2.00 B2112,2013-05-11 09:31:00,
2013-05-11 05:36:00,68.1,59.9,29.88,NE,42,0.0,0.0,75,0.00,,,0.00,LWC V2.00 B2112,2013-05-11 09:36:00,
2013-05-11 05:41:00,68.1,59.9,29.87,NE,42,0.0,0.0,75,0.00,,,0.00,LWC V2.00 B2112,2013-05-11 09:41:00,
2013-05-11 05:46:00,67.9,59.7,29.87,NE,42,0.0,0.0,75,0.00,,,0.00,LWC V2.00 B2112,2013-05-11 09:46:00,
2013-05-11 05:51:00,67.9,59.3,29.87,NE,42,0.0,0.0,74,0.00,,,0.00,LWC V2.00 B2112,2013-05-11 09:51:00,
2013-05-11 05:56:00,67.9,60.0,29.87,NE,42,0.0,0.0,76,0.00,,,0.00,LWC V2.00 B2112,2013-05-11 09:56:00,
2013-05-11 06:01:00,67.9,60.0,29.87,NNE,27,0.0,1.0,76,0.00,,,0.00,LWC V2.00 B2112,2013-05-11 10:01:00,
2013-05-11 06:06:00,67.8,59.6,29.87,NNE,27,0.0,0.0,75,0.00,,,0.00,LWC V2.00 B2112,2013-05-11 10:06:00,
2013-05-11 06:11:00,67.8,59.9,29.88,NNE,27,0.0,0.0,76,0.00,,,0.00,LWC V2.00 B2112,2013-05-11 10:11:00,
2013-05-11 06:16:00,67.8,59.9,29.88,NNE,27,0.0,0.0,76,0.00,,,0.00,LWC V2.00 B2112,2013-05-11 10:16:00,
2013-05-11 06:21:00,67.6,59.8,29.88,NNE,27,0.0,0.0,76,0.00,,,0.00,LWC V2.00 B2112,2013-05-11 10:21:00,
2013-05-11 06:26:00,67.6,59.8,29.88,NNE,27,0.0,0.0,76,0.00,,,0.00,LWC V2.00 B2112,2013-05-11 10:26:00,
2013-05-11 06:31:00,67.4,58.4,29.88,NNE,27,0.0,0.0,73,0.00,,,0.00,LWC V2.00 B2112,2013-05-11 10:31:00,
2013-05-11 06:36:00,67.4,58.8,29.88,NNE,27,0.0,0.0,74,0.00,,,0.00,LWC V2.00 B2112,2013-05-11 10:36:00,
2013-05-11 06:41:00,67.4,59.2,29.88,NNE,27,0.0,0.0,75,0.00,,,0.00,LWC V2.00 B2112,2013-05-11 10:41:00,
2013-05-11 06:46:00,67.4,58.8,29.88,NNE,27,0.0,0.0,74,0.00,,,0.00,LWC V2.00 B2112,2013-05-11 10:46:00,
2013-05-11 06:51:00,67.4,59.2,29.88,NNE,27,0.0,0.0,75,0.00,,,0.00,LWC V2.00 B2112,2013-05-11 10:51:00,
2013-05-11 06:56:00,67.4,59.2,29.88,NNE,27,0.0,0.0,75,0.00,,,0.00,LWC V2.00 B2112,2013-05-11 10:56:00,
2013-05-11 07:01:00,67.4,59.2,29.88,NNE,27,0.0,0.0,75,0.00,,,0.00,LWC V2.00 B2112,2013-05-11 11:01:00,
2013-05-11 07:06:00,67.4,59.6,29.88,NNE,27,0.0,0.0,76,0.00,,,0.00,LWC V2.00 B2112,2013-05-11 11:06:00,
2013-05-11 07:11:00,67.4,59.6,29.88,NNE,27,0.0,0.0,76,0.00,,,0.00,LWC V2.00 B2112,2013-05-11 11:11:00,
2013-05-11 07:16:00,67.4,59.9,29.88,NNE,27,0.0,0.0,77,0.00,,,0.00,LWC V2.00 B2112,2013-05-11 11:16:00,
2013-05-11 07:21:00,67.4,59.9,29.88,NNE,27,0.0,0.0,77,0.00,,,0.00,LWC V2.00 B2112,2013-05-11 11:21:00,
2013-05-11 07:26:00,67.4,59.9,29.88,NNE,27,2.0,2.0,77,0.00,,,0.00,LWC V2.00 B2112,2013-05-11 11:26:00,
2013-05-11 07:31:00,67.4,59.9,29.88,NE,34,0.0,0.0,77,0.00,,,0.00,LWC V2.00 B2112,2013-05-11 11:31:00,
2013-05-11 07:36:00,67.6,60.5,29.88,NE,34,0.0,0.0,78,0.00,,,0.00,LWC V2.00 B2112,2013-05-11 11:36:00,
2013-05-11 07:41:00,67.6,60.8,29.88,NE,34,0.0,0.0,79,0.00,,,0.00,LWC V2.00 B2112,2013-05-11 11:41:00,
2013-05-11 07:46:00,67.6,60.8,29.88,NE,34,0.0,0.0,79,0.00,,,0.00,LWC V2.00 B2112,2013-05-11 11:46:00,
2013-05-11 07:51:00,67.8,61.0,29.88,NE,34,0.0,0.0,79,0.00,,,0.00,LWC V2.00 B2112,2013-05-11 11:51:00,
2013-05-11 07:56:00,67.9,61.1,29.88,NE,34,0.0,0.0,79,0.00,,,0.00,LWC V2.00 B2112,2013-05-11 11:56:00,
2013-05-11 08:01:00,68.1,61.3,29.88,NE,34,0.0,0.0,79,0.00,,,0.00,LWC V2.00 B2112,2013-05-11 12:01:00,
2013-05-11 08:06:00,68.3,61.9,29.88,NE,34,0.0,2.0,80,0.00,,,0.00,LWC V2.00 B2112,2013-05-11 12:06:00,
2013-05-11 08:11:00,68.3,61.9,29.87,NE,34,0.0,0.0,80,0.00,,,0.00,LWC V2.00 B2112,2013-05-11 12:11:00,
2013-05-11 08:16:00,68.3,61.9,29.87,NNE,33,0.0,0.0,80,0.00,,,0.00,LWC V2.00 B2112,2013-05-11 12:16:00,
2013-05-11 08:21:00,68.4,62.0,29.87,NE,34,0.0,0.0,80,0.00,,,0.00,LWC V2.00 B2112,2013-05-11 12:21:00,
2013-05-11 08:26:00,68.4,62.3,29.87,NE,34,0.0,0.0,81,0.00,,,0.00,LWC V2.00 B2112,2013-05-11 12:26:00,
2013-05-11 08:31:00,68.6,62.5,29.87,NNE,32,0.0,2.0,81,0.00,,,0.00,LWC V2.00 B2112,2013-05-11 12:31:00,
2013-05-11 08:36:00,68.9,62.5,29.87,NNE,32,0.0,0.0,80,0.00,,,0.00,LWC V2.00 B2112,2013-05-11 12:36:00,
2013-05-11 08:41:00,69.1,62.7,29.87,NNE,32,0.0,0.0,80,0.00,,,0.00,LWC V2.00 B2112,2013-05-11 12:41:00,
2013-05-11 08:46:00,69.4,63.0,29.87,NNE,32,0.0,0.0,80,0.00,,,0.00,LWC V2.00 B2112,2013-05-11 12:46:00,
2013-05-11 08:51:00,69.6,63.1,29.87,NNE,32,0.0,0.0,80,0.00,,,0.00,LWC V2.00 B2112,2013-05-11 12:51:00,
2013-05-11 08:56:00,69.9,62.7,29.87,NE,35,0.0,0.0,78,0.00,,,0.00,LWC V2.00 B2112,2013-05-11 12:56:00,
2013-05-11 09:01:00,70.1,62.9,29.87,NE,35,0.0,0.0,78,0.00,,,0.00,LWC V2.00 B2112,2013-05-11 13:01:00,
2013-05-11 09:06:00,70.3,62.7,29.87,NE,35,0.0,0.0,77,0.00,,,0.00,LWC V2.00 B2112,2013-05-11 13:06:00,
2013-05-11 09:11:00,70.4,62.8,29.86,NE,35,0.0,0.0,77,0.00,,,0.00,LWC V2.00 B2112,2013-05-11 13:11:00,
2013-05-11 09:16:00,70.8,63.2,29.86,NE,35,0.0,1.0,77,0.00,,,0.00,LWC V2.00 B2112,2013-05-11 13:16:00,
2013-05-11 09:21:00,71.1,63.5,29.86,NE,35,0.0,0.0,77,0.00,,,0.00,LWC V2.00 B2112,2013-05-11 13:21:00,
2013-05-11 09:26:00,71.5,62.8,29.86,NE,35,0.0,0.0,74,0.00,,,0.00,LWC V2.00 B2112,2013-05-11 13:26:00,
2013-05-11 09:32:00,71.8,63.1,29.86,NE,35,0.0,0.0,74,0.00,,,0.00,LWC V2.00 B2112,2013-05-11 13:32:00,
2013-05-11 09:37:00,72.1,63.3,29.86,NE,35,0.0,1.0,74,0.00,,,0.00,LWC V2.00 B2112,2013-05-11 13:37:00,
2013-05-11 09:42:00,72.3,63.1,29.86,NE,35,0.0,1.0,73,0.00,,,0.00,LWC V2.00 B2112,2013-05-11 13:42:00,
2013-05-11 09:47:00,72.7,62.3,29.86,NE,35,0.0,0.0,70,0.00,,,0.00,LWC V2.00 B2112,2013-05-11 13:47:00,
2013-05-11 09:52:00,73.3,62.5,29.86,NE,35,0.0,0.0,69,0.00,,,0.00,LWC V2.00 B2112,2013-05-11 13:52:00,
2013-05-11 09:57:00,73.7,63.3,29.86,NE,36,0.0,0.0,70,0.00,,,0.00,LWC V2.00 B2112,2013-05-11 13:57:00,
2013-05-11 10:02:00,73.9,62.2,29.86,NE,36,0.0,1.0,67,0.00,,,0.00,LWC V2.00 B2112,2013-05-11 14:02:00,
2013-05-11 10:07:00,74.0,61.9,29.86,NE,36,0.0,1.0,66,0.00,,,0.00,LWC V2.00 B2112,2013-05-11 14:07:00,
2013-05-11 10:12:00,74.2,62.9,29.85,NE,36,0.0,0.0,68,0.00,,,0.00,LWC V2.00 B2112,2013-05-11 14:12:00,
2013-05-11 10:17:00,74.4,62.7,29.85,NE,36,0.0,1.0,67,0.00,,,0.00,LWC V2.00 B2112,2013-05-11 14:17:00,
2013-05-11 10:22:00,74.7,63.0,29.85,SSW,201,0.0,2.0,67,0.00,,,0.00,LWC V2.00 B2112,2013-05-11 14:22:00,
2013-05-11 10:27:00,75.3,62.3,29.85,NE,49,0.0,0.0,64,0.00,,,0.00,LWC V2.00 B2112,2013-05-11 14:27:00,
2013-05-11 10:32:00,75.4,61.5,29.85,NE,49,0.0,0.0,62,0.00,,,0.00,LWC V2.00 B2112,2013-05-11 14:32:00,
2013-05-11 10:37:00,75.6,61.6,29.85,NNE,32,0.0,3.0,62,0.00,,,0.00,LWC V2.00 B2112,2013-05-11 14:37:00,
2013-05-11 10:42:00,76.0,62.0,29.85,South,171,1.0,2.0,62,0.00,,,0.00,LWC V2.00 B2112,2013-05-11 14:42:00,
2013-05-11 10:47:00,76.3,62.3,29.85,East,84,0.0,2.0,62,0.00,,,0.00,LWC V2.00 B2112,2013-05-11 14:47:00,
2013-05-11 10:52:00,76.7,61.7,29.85,ENE,67,0.0,1.0,60,0.00,,,0.00,LWC V2.00 B2112,2013-05-11 14:52:00,
2013-05-11 10:57:00,76.8,62.8,29.84,ENE,67,0.0,0.0,62,0.00,,,0.00,LWC V2.00 B2112,2013-05-11 14:57:00,
2013-05-11 11:02:00,77.0,63.0,29.84,South,173,1.0,1.0,62,0.00,,,0.00,LWC V2.00 B2112,2013-05-11 15:02:00,
2013-05-11 11:07:00,77.2,61.7,29.84,SSW,196,0.0,1.0,59,0.00,,,0.00,LWC V2.00 B2112,2013-05-11 15:07:00,
2013-05-11 11:12:00,77.4,62.4,29.83,NE,37,0.0,0.0,60,0.00,,,0.00,LWC V2.00 B2112,2013-05-11 15:12:00,
2013-05-11 11:17:00,77.7,61.7,29.83,ENE,59,0.0,2.0,58,0.00,,,0.00,LWC V2.00 B2112,2013-05-11 15:17:00,
2013-05-11 11:22:00,77.9,61.4,29.83,ENE,65,2.0,2.0,57,0.00,,,0.00,LWC V2.00 B2112,2013-05-11 15:22:00,
2013-05-11 11:27:00,78.1,61.6,29.84,SSE,150,0.0,1.0,57,0.00,,,0.00,LWC V2.00 B2112,2013-05-11 15:27:00,
2013-05-11 11:32:00,77.9,60.9,29.84,SSE,150,0.0,1.0,56,0.00,,,0.00,LWC V2.00 B2112,2013-05-11 15:32:00,
2013-05-11 11:37:00,77.9,61.9,29.84,SE,132,0.0,1.0,58,0.00,,,0.00,LWC V2.00 B2112,2013-05-11 15:37:00,
2013-05-11 11:42:00,78.1,60.6,29.84,South,185,0.0,1.0,55,0.00,,,0.00,LWC V2.00 B2112,2013-05-11 15:42:00,
2013-05-11 11:47:00,78.3,61.3,29.84,SSE,150,0.0,1.0,56,0.00,,,0.00,LWC V2.00 B2112,2013-05-11 15:47:00,
2013-05-11 11:52:00,78.5,61.0,29.84,East,95,0.0,1.0,55,0.00,,,0.00,LWC V2.00 B2112,2013-05-11 15:52:00,
2013-05-11 11:57:00,78.6,61.1,29.83,East,96,0.0,0.0,55,0.00,,,0.00,LWC V2.00 B2112,2013-05-11 15:57:00,
2013-05-11 12:02:00,78.8,61.8,29.83,NNW,348,0.0,1.0,56,0.00,,,0.00,LWC V2.00 B2112,2013-05-11 16:02:00,
2013-05-11 12:07:00,79.2,60.6,29.83,South,182,0.0,2.0,53,0.00,,,0.00,LWC V2.00 B2112,2013-05-11 16:07:00,
2013-05-11 12:12:00,79.4,61.8,29.83,South,182,0.0,1.0,55,0.00,,,0.00,LWC V2.00 B2112,2013-05-11 16:12:00,
2013-05-11 12:17:00,79.6,60.9,29.83,East,96,0.0,1.0,53,0.00,,,0.00,LWC V2.00 B2112,2013-05-11 16:17:00,
2013-05-11 12:22:00,79.4,61.8,29.83,East,88,0.0,1.0,55,0.00,,,0.00,LWC V2.00 B2112,2013-05-11 16:22:00,
2013-05-11 12:27:00,79.6,60.4,29.83,WNW,286,0.0,3.0,52,0.00,,,0.00,LWC V2.00 B2112,2013-05-11 16:27:00,
2013-05-11 12:32:00,79.9,61.2,29.83,ENE,72,0.0,2.0,53,0.00,,,0.00,LWC V2.00 B2112,2013-05-11 16:32:00,
2013-05-11 12:37:00,79.9,60.7,29.83,SE,142,0.0,2.0,52,0.00,,,0.00,LWC V2.00 B2112,2013-05-11 16:37:00,
2013-05-11 12:42:00,79.9,60.7,29.83,East,90,0.0,1.0,52,0.00,,,0.00,LWC V2.00 B2112,2013-05-11 16:42:00,
2013-05-11 12:47:00,79.6,61.5,29.83,South,180,0.0,1.0,54,0.00,,,0.00,LWC V2.00 B2112,2013-05-11 16:47:00,
2013-05-11 12:52:00,79.4,61.3,29.83,SSW,209,0.0,2.0,54,0.00,,,0.00,LWC V2.00 B2112,2013-05-11 16:52:00,
2013-05-11 12:57:00,79.0,60.4,29.82,East,92,0.0,2.0,53,0.00,,,0.00,LWC V2.00 B2112,2013-05-11 16:57:00,
2013-05-11 13:02:00,79.0,61.4,29.82,NNE,18,0.0,0.0,55,0.00,,,0.00,LWC V2.00 B2112,2013-05-11 17:02:00,
2013-05-11 13:07:00,79.0,61.9,29.82,NNE,19,0.0,1.0,56,0.00,,,0.00,LWC V2.00 B2112,2013-05-11 17:07:00,
2013-05-11 13:12:00,79.0,61.4,29.82,NNE,19,0.0,0.0,55,0.00,,,0.00,LWC V2.00 B2112,2013-05-11 17:12:00,
2013-05-11 13:17:00,79.0,62.9,29.82,NNE,17,0.0,1.0,58,0.00,,,0.00,LWC V2.00 B2112,2013-05-11 17:17:00,
2013-05-11 13:22:00,79.2,61.6,29.82,SSE,159,0.0,2.0,55,0.00,,,0.00,LWC V2.00 B2112,2013-05-11 17:22:00,
2013-05-11 13:27:00,79.0,61.9,29.80,SSE,159,0.0,0.0,56,0.00,,,0.00,LWC V2.00 B2112,2013-05-11 17:27:00,
2013-05-11 13:32:00,78.8,61.8,29.80,SE,130,0.0,0.0,56,0.00,,,0.00,LWC V2.00 B2112,2013-05-11 17:32:00,
2013-05-11 13:37:00,78.8,63.2,29.80,East,98,0.0,0.0,59,0.00,,,0.00,LWC V2.00 B2112,2013-05-11 17:37:00,
2013-05-11 13:42:00,79.0,61.4,29.80,East,98,0.0,0.0,55,0.00,,,0.00,LWC V2.00 B2112,2013-05-11 17:42:00,
2013-05-11 13:47:00,79.9,62.8,29.80,North,0,0.0,0.0,56,0.00,,,0.00,LWC V2.00 B2112,2013-05-11 17:47:00,
2013-05-11 13:52:00,80.3,64.2,29.80,North,0,0.0,1.0,58,0.00,,,0.00,LWC V2.00 B2112,2013-05-11 17:52:00,
2013-05-11 13:57:00,80.3,62.1,29.79,NNW,340,0.0,1.0,54,0.00,,,0.00,LWC V2.00 B2112,2013-05-11 17:57:00,
2013-05-11 14:02:00,79.9,62.3,29.79,NNW,340,0.0,0.0,55,0.00,,,0.00,LWC V2.00 B2112,2013-05-11 18:02:00,
2013-05-11 14:07:00,79.8,62.2,29.79,NNE,24,0.0,1.0,55,0.00,,,0.00,LWC V2.00 B2112,2013-05-11 18:07:00,
2013-05-11 14:12:00,79.9,62.8,29.79,ENE,76,0.0,3.0,56,0.00,,,0.00,LWC V2.00 B2112,2013-05-11 18:12:00,
2013-05-11 14:17:00,80.1,62.4,29.79,North,0,1.0,2.0,55,0.00,,,0.00,LWC V2.00 B2112,2013-05-11 18:17:00,
2013-05-11 14:22:00,80.9,64.2,29.79,North,0,0.0,1.0,57,0.00,,,0.00,LWC V2.00 B2112,2013-05-11 18:22:00,
2013-05-11 14:27:00,81.2,64.0,29.79,NE,36,0.0,0.0,56,0.00,,,0.00,LWC V2.00 B2112,2013-05-11 18:27:00,
2013-05-11 14:32:00,81.8,61.9,29.79,East,84,1.0,3.0,51,0.00,,,0.00,LWC V2.00 B2112,2013-05-11 18:32:00,
2013-05-11 14:37:00,82.0,63.2,29.79,East,84,0.0,0.0,53,0.00,,,0.00,LWC V2.00 B2112,2013-05-11 18:37:00,
2013-05-11 14:42:00,82.4,63.0,29.78,NE,44,0.0,1.0,52,0.00,,,0.00,LWC V2.00 B2112,2013-05-11 18:42:00,
2013-05-11 14:47:00,82.0,63.7,29.78,NE,53,0.0,0.0,54,0.00,,,0.00,LWC V2.00 B2112,2013-05-11 18:47:00,
2013-05-11 14:52:00,81.8,62.4,29.78,ENE,59,0.0,1.0,52,0.00,,,0.00,LWC V2.00 B2112,2013-05-11 18:52:00,
2013-05-11 14:57:00,81.6,63.3,29.77,NE,47,0.0,0.0,54,0.00,,,0.00,LWC V2.00 B2112,2013-05-11 18:57:00,
2013-05-11 15:02:00,81.1,61.8,29.77,ENE,61,0.0,1.0,52,0.00,,,0.00,LWC V2.00 B2112,2013-05-11 19:02:00,
2013-05-11 15:07:00,80.5,62.3,29.77,ENE,59,0.0,1.0,54,0.00,,,0.00,LWC V2.00 B2112,2013-05-11 19:07:00,
2013-05-11 15:12:00,80.1,63.0,29.77,ENE,59,0.0,0.0,56,0.00,,,0.00,LWC V2.00 B2112,2013-05-11 19:12:00,
2013-05-11 15:17:00,79.9,62.3,29.77,ENE,63,0.0,2.0,55,0.00,,,0.00,LWC V2.00 B2112,2013-05-11 19:17:00,
2013-05-11 15:22:00,79.9,62.3,29.77,ENE,64,2.0,2.0,55,0.00,,,0.00,LWC V2.00 B2112,2013-05-11 19:22:00,
2013-05-11 15:27:00,79.9,63.3,29.77,ENE,65,0.0,0.0,57,0.00,,,0.00,LWC V2.00 B2112,2013-05-11 19:27:00,
2013-05-11 15:32:00,79.6,65.4,29.77,ENE,65,0.0,0.0,62,0.00,,,0.00,LWC V2.00 B2112,2013-05-11 19:32:00,
2013-05-11 15:37:00,79.4,62.8,29.77,ENE,59,0.0,2.0,57,0.00,,,0.00,LWC V2.00 B2112,2013-05-11 19:37:00,
2013-05-11 15:42:00,79.9,62.3,29.76,NNE,15,0.0,1.0,55,0.00,,,0.00,LWC V2.00 B2112,2013-05-11 19:42:00,
2013-05-11 15:47:00,80.7,64.5,29.76,NNE,23,0.0,1.0,58,0.00,,,0.00,LWC V2.00 B2112,2013-05-11 19:47:00,
2013-05-11 15:52:00,81.4,62.6,29.76,ENE,63,0.0,0.0,53,0.00,,,0.00,LWC V2.00 B2112,2013-05-11 19:52:00,
2013-05-11 15:57:00,81.6,60.6,29.76,SE,126,1.0,1.0,49,0.00,,,0.00,LWC V2.00 B2112,2013-05-11 19:57:00,
2013-05-11 16:02:00,81.6,61.7,29.76,NNE,24,1.0,2.0,51,0.00,,,0.00,LWC V2.00 B2112,2013-05-11 20:02:00,
2013-05-11 16:07:00,81.4,62.1,29.76,NE,46,0.0,3.0,52,0.00,,,0.00,LWC V2.00 B2112,2013-05-11 20:07:00,
2013-05-11 16:12:00,81.4,62.1,29.75,NE,43,0.0,2.0,52,0.00,,,0.00,LWC V2.00 B2112,2013-05-11 20:12:00,
2013-05-11 16:17:00,81.2,63.5,29.75,NE,43,0.0,0.0,55,0.00,,,0.00,LWC V2.00 B2112,2013-05-11 20:17:00,
2013-05-11 16:22:00,81.1,62.3,29.75,NE,42,0.0,0.0,53,0.00,,,0.00,LWC V2.00 B2112,2013-05-11 20:22:00,
2013-05-11 16:27:00,80.9,63.2,29.75,NE,42,0.0,0.0,55,0.00,,,0.00,LWC V2.00 B2112,2013-05-11 20:27:00,
2013-05-11 16:32:00,80.3,62.1,29.75,NE,48,0.0,1.0,54,0.00,,,0.00,LWC V2.00 B2112,2013-05-11 20:32:00,
2013-05-11 16:37:00,79.4,63.8,29.75,ENE,78,0.0,5.0,59,0.00,,,0.00,LWC V2.00 B2112,2013-05-11 20:37:00,
2013-05-11 16:42:00,77.7,65.0,29.78,SE,145,0.0,2.0,65,0.00,,,0.00,LWC V2.00 B2112,2013-05-11 20:42:00,
2013-05-11 16:47:00,76.1,65.6,29.78,East,88,0.0,1.0,70,0.00,,,0.00,LWC V2.00 B2112,2013-05-11 20:47:00,
2013-05-11 16:52:00,74.6,65.4,29.78,NE,53,0.0,2.0,73,0.00,,,0.00,LWC V2.00 B2112,2013-05-11 20:52:00,
2013-05-11 16:57:00,73.3,64.5,29.77,NE,55,0.0,0.0,74,0.00,,,0.00,LWC V2.00 B2112,2013-05-11 20:57:00,
2013-05-11 17:02:00,72.3,64.3,29.77,ENE,59,0.0,1.0,76,0.00,,,0.00,LWC V2.00 B2112,2013-05-11 21:02:00,
2013-05-11 17:07:00,71.6,65.1,29.77,ENE,59,0.0,0.0,80,0.00,,,0.01,LWC V2.00 B2112,2013-05-11 21:07:00,
2013-05-11 17:12:00,70.9,64.8,29.78,ENE,59,0.0,0.0,81,0.08,,,0.02,LWC V2.00 B2112,2013-05-11 21:12:00,
2013-05-11 17:17:00,70.4,65.0,29.78,ENE,59,0.0,0.0,83,0.12,,,0.03,LWC V2.00 B2112,2013-05-11 21:17:00,
2013-05-11 17:22:00,69.8,65.4,29.78,ENE,59,0.0,0.0,86,0.14,,,0.04,LWC V2.00 B2112,2013-05-11 21:22:00,
2013-05-11 17:27:00,69.4,65.7,29.78,ENE,59,0.0,0.0,88,0.08,,,0.04,LWC V2.00 B2112,2013-05-11 21:27:00,
2013-05-11 17:32:00,69.3,65.6,29.78,ENE,59,0.0,0.0,88,0.05,,,0.04,LWC V2.00 B2112,2013-05-11 21:32:00,
2013-05-11 17:37:00,68.9,65.8,29.78,ENE,59,0.0,0.0,90,0.04,,,0.05,LWC V2.00 B2112,2013-05-11 21:37:00,
2013-05-11 17:42:00,68.8,65.7,29.78,ENE,59,0.0,0.0,90,0.04,,,0.05,LWC V2.00 B2112,2013-05-11 21:42:00,
2013-05-11 17:47:00,68.6,65.9,29.78,ENE,59,0.0,0.0,91,0.04,,,0.05,LWC V2.00 B2112,2013-05-11 21:47:00,
2013-05-11 17:52:00,68.4,66.0,29.78,ENE,59,0.0,0.0,92,0.04,,,0.05,LWC V2.00 B2112,2013-05-11 21:52:00,
2013-05-11 17:57:00,68.4,66.0,29.78,ENE,59,0.0,0.0,92,0.00,,,0.05,LWC V2.00 B2112,2013-05-11 21:57:00,
2013-05-11 18:02:00,68.4,66.0,29.78,ENE,59,0.0,0.0,92,0.00,,,0.05,LWC V2.00 B2112,2013-05-11 22:02:00,
2013-05-11 18:07:00,68.4,66.3,29.78,ENE,59,0.0,0.0,93,0.00,,,0.05,LWC V2.00 B2112,2013-05-11 22:07:00,
2013-05-11 18:12:00,68.4,66.3,29.77,ENE,59,0.0,0.0,93,0.00,,,0.05,LWC V2.00 B2112,2013-05-11 22:12:00,
2013-05-11 18:17:00,68.4,66.3,29.77,ENE,59,0.0,0.0,93,0.00,,,0.05,LWC V2.00 B2112,2013-05-11 22:17:00,
2013-05-11 18:22:00,68.4,66.3,29.77,ENE,59,0.0,0.0,93,0.00,,,0.05,LWC V2.00 B2112,2013-05-11 22:22:00,
2013-05-11 18:27:00,68.6,66.8,29.76,ENE,59,0.0,0.0,94,0.00,,,0.05,LWC V2.00 B2112,2013-05-11 22:27:00,
2013-05-11 18:32:00,68.6,66.8,29.76,ENE,59,0.0,0.0,94,0.00,,,0.05,LWC V2.00 B2112,2013-05-11 22:32:00,
2013-05-11 18:37:00,68.6,66.8,29.76,ENE,59,0.0,0.0,94,0.00,,,0.05,LWC V2.00 B2112,2013-05-11 22:37:00,
2013-05-11 18:42:00,68.8,67.0,29.75,ENE,59,0.0,0.0,94,0.00,,,0.05,LWC V2.00 B2112,2013-05-11 22:42:00,
2013-05-11 18:47:00,68.8,67.0,29.75,ENE,59,0.0,0.0,94,0.00,,,0.05,LWC V2.00 B2112,2013-05-11 22:47:00,
2013-05-11 18:52:00,68.8,67.0,29.75,ENE,59,0.0,0.0,94,0.00,,,0.05,LWC V2.00 B2112,2013-05-11 22:52:00,
2013-05-11 18:57:00,68.8,67.0,29.75,ENE,59,0.0,0.0,94,0.00,,,0.05,LWC V2.00 B2112,2013-05-11 22:57:00,
2013-05-11 19:02:00,68.6,66.8,29.75,ENE,59,0.0,0.0,94,0.00,,,0.05,LWC V2.00 B2112,2013-05-11 23:02:00,
2013-05-11 19:07:00,68.6,66.8,29.75,ENE,59,0.0,0.0,94,0.00,,,0.05,LWC V2.00 B2112,2013-05-11 23:07:00,
2013-05-11 19:12:00,68.6,67.1,29.75,ENE,59,0.0,0.0,95,0.00,,,0.05,LWC V2.00 B2112,2013-05-11 23:12:00,
2013-05-11 19:17:00,68.6,67.1,29.75,ENE,59,0.0,0.0,95,0.00,,,0.05,LWC V2.00 B2112,2013-05-11 23:17:00,
2013-05-11 19:22:00,68.8,67.3,29.75,ENE,59,0.0,0.0,95,0.00,,,0.05,LWC V2.00 B2112,2013-05-11 23:22:00,
2013-05-11 19:27:00,68.8,67.3,29.75,ENE,59,0.0,0.0,95,0.00,,,0.05,LWC V2.00 B2112,2013-05-11 23:27:00,
2013-05-11 19:32:00,68.8,67.3,29.75,NNW,330,0.0,0.0,95,0.00,,,0.05,LWC V2.00 B2112,2013-05-11 23:32:00,
2013-05-11 19:37:00,68.8,67.3,29.75,NNW,330,0.0,0.0,95,0.00,,,0.05,LWC V2.00 B2112,2013-05-11 23:37:00,
2013-05-11 19:42:00,68.8,67.3,29.75,NNW,330,0.0,0.0,95,0.00,,,0.05,LWC V2.00 B2112,2013-05-11 23:42:00,
2013-05-11 19:47:00,68.6,67.1,29.75,NNW,330,0.0,0.0,95,0.00,,,0.05,LWC V2.00 B2112,2013-05-11 23:47:00,
2013-05-11 19:52:00,68.6,67.1,29.75,NNW,330,0.0,0.0,95,0.00,,,0.05,LWC V2.00 B2112,2013-05-11 23:52:00,
2013-05-11 19:57:00,68.4,66.9,29.76,NNW,330,0.0,0.0,95,0.00,,,0.05,LWC V2.00 B2112,2013-05-11 23:57:00,
2013-05-11 20:02:00,68.4,66.9,29.76,NNW,330,0.0,0.0,95,0.00,,,0.05,LWC V2.00 B2112,2013-05-12 00:02:00,
2013-05-11 20:07:00,68.3,66.8,29.76,NNW,330,0.0,0.0,95,0.00,,,0.05,LWC V2.00 B2112,2013-05-12 00:07:00,
2013-05-11 20:13:00,68.1,66.6,29.77,NNW,330,0.0,0.0,95,0.00,,,0.05,LWC V2.00 B2112,2013-05-12 00:13:00,
2013-05-11 20:18:00,67.9,66.4,29.77,NNW,330,0.0,0.0,95,0.00,,,0.05,LWC V2.00 B2112,2013-05-12 00:18:00,
2013-05-11 20:23:00,67.8,66.0,29.77,NNW,330,0.0,0.0,94,0.00,,,0.05,LWC V2.00 B2112,2013-05-12 00:23:00,
2013-05-11 20:28:00,67.6,66.1,29.77,NNW,330,0.0,0.0,95,0.00,,,0.05,LWC V2.00 B2112,2013-05-12 00:28:00,
2013-05-11 20:33:00,67.6,66.1,29.77,NNW,330,0.0,0.0,95,0.00,,,0.05,LWC V2.00 B2112,2013-05-12 00:33:00,
2013-05-11 20:38:00,67.4,65.9,29.77,NNW,330,0.0,0.0,95,0.00,,,0.05,LWC V2.00 B2112,2013-05-12 00:38:00,
2013-05-11 20:43:00,67.3,65.8,29.77,NNW,330,0.0,0.0,95,0.00,,,0.05,LWC V2.00 B2112,2013-05-12 00:43:00,
2013-05-11 20:48:00,67.3,65.8,29.77,NNW,330,0.0,0.0,95,0.00,,,0.05,LWC V2.00 B2112,2013-05-12 00:48:00,
2013-05-11 20:53:00,67.1,65.6,29.77,NNW,330,0.0,0.0,95,0.00,,,0.05,LWC V2.00 B2112,2013-05-12 00:53:00,
2013-05-11 20:58:00,66.9,65.4,29.77,NNW,330,0.0,0.0,95,0.00,,,0.05,LWC V2.00 B2112,2013-05-12 00:58:00,
2013-05-11 21:03:00,66.9,65.4,29.77,NNW,330,0.0,0.0,95,0.00,,,0.05,LWC V2.00 B2112,2013-05-12 01:03:00,
2013-05-11 21:08:00,66.8,65.3,29.77,NNW,330,0.0,0.0,95,0.00,,,0.05,LWC V2.00 B2112,2013-05-12 01:08:00,
2013-05-11 21:13:00,66.8,65.3,29.77,NNW,330,0.0,0.0,95,0.00,,,0.05,LWC V2.00 B2112,2013-05-12 01:13:00,
2013-05-11 21:18:00,66.8,65.3,29.77,NNW,330,0.0,0.0,95,0.00,,,0.05,LWC V2.00 B2112,2013-05-12 01:18:00,
2013-05-11 21:23:00,66.6,65.1,29.77,NNW,330,0.0,0.0,95,0.00,,,0.05,LWC V2.00 B2112,2013-05-12 01:23:00,
2013-05-11 21:28:00,66.6,65.1,29.77,NNW,330,0.0,0.0,95,0.00,,,0.05,LWC V2.00 B2112,2013-05-12 01:28:00,
2013-05-11 21:33:00,66.6,65.1,29.77,NNW,330,0.0,0.0,95,0.00,,,0.05,LWC V2.00 B2112,2013-05-12 01:33:00,
2013-05-11 21:38:00,66.6,65.1,29.77,NNW,330,0.0,0.0,95,0.00,,,0.05,LWC V2.00 B2112,2013-05-12 01:38:00,
2013-05-11 21:43:00,66.4,65.2,29.77,NNW,330,0.0,0.0,96,0.00,,,0.05,LWC V2.00 B2112,2013-05-12 01:43:00,
2013-05-11 21:48:00,66.4,65.2,29.77,NNW,330,0.0,0.0,96,0.00,,,0.05,LWC V2.00 B2112,2013-05-12 01:48:00,
2013-05-11 21:53:00,66.4,65.2,29.77,NNW,330,0.0,0.0,96,0.00,,,0.05,LWC V2.00 B2112,2013-05-12 01:53:00,
2013-05-11 21:58:00,66.4,65.2,29.77,NNW,330,0.0,0.0,96,0.00,,,0.05,LWC V2.00 B2112,2013-05-12 01:58:00,
2013-05-11 22:03:00,66.3,65.1,29.77,NNW,330,0.0,0.0,96,0.00,,,0.05,LWC V2.00 B2112,2013-05-12 02:03:00,
2013-05-11 22:08:00,66.3,65.1,29.77,NNW,330,0.0,0.0,96,0.00,,,0.05,LWC V2.00 B2112,2013-05-12 02:08:00,
2013-05-11 22:13:00,66.3,65.1,29.77,NNW,330,0.0,0.0,96,0.00,,,0.05,LWC V2.00 B2112,2013-05-12 02:13:00,
2013-05-11 22:18:00,66.3,65.1,29.77,NNW,330,0.0,0.0,96,0.00,,,0.05,LWC V2.00 B2112,2013-05-12 02:18:00,
2013-05-11 22:23:00,66.3,65.1,29.77,NNW,330,0.0,0.0,96,0.00,,,0.05,LWC V2.00 B2112,2013-05-12 02:23:00,
2013-05-11 22:28:00,66.1,64.9,29.77,NNW,330,0.0,0.0,96,0.00,,,0.05,LWC V2.00 B2112,2013-05-12 02:28:00,
2013-05-11 22:33:00,66.1,64.9,29.77,NNW,330,0.0,0.0,96,0.00,,,0.05,LWC V2.00 B2112,2013-05-12 02:33:00,
2013-05-11 22:38:00,66.1,64.9,29.77,NNW,330,0.0,0.0,96,0.00,,,0.05,LWC V2.00 B2112,2013-05-12 02:38:00,
2013-05-11 22:43:00,66.1,64.9,29.77,NNW,330,0.0,0.0,96,0.00,,,0.05,LWC V2.00 B2112,2013-05-12 02:43:00,
2013-05-11 22:48:00,66.0,64.8,29.77,NNW,330,0.0,0.0,96,0.00,,,0.05,LWC V2.00 B2112,2013-05-12 02:48:00,
2013-05-11 22:53:00,66.0,64.8,29.77,NNW,330,0.0,0.0,96,0.00,,,0.05,LWC V2.00 B2112,2013-05-12 02:53:00,
2013-05-11 22:58:00,66.0,65.1,29.77,NNW,330,0.0,0.0,97,0.00,,,0.05,LWC V2.00 B2112,2013-05-12 02:58:00,
2013-05-11 23:03:00,66.0,65.1,29.77,NNW,330,0.0,0.0,97,0.00,,,0.05,LWC V2.00 B2112,2013-05-12 03:03:00,
2013-05-11 23:08:00,66.1,65.2,29.77,NNW,330,0.0,0.0,97,0.00,,,0.05,LWC V2.00 B2112,2013-05-12 03:08:00,
2013-05-11 23:13:00,66.3,65.4,29.77,NNW,330,0.0,0.0,97,0.00,,,0.05,LWC V2.00 B2112,2013-05-12 03:13:00,
2013-05-11 23:18:00,66.3,65.4,29.77,NNW,330,0.0,0.0,97,0.00,,,0.05,LWC V2.00 B2112,2013-05-12 03:18:00,
2013-05-11 23:23:00,66.3,65.4,29.77,NNW,330,0.0,0.0,97,0.00,,,0.05,LWC V2.00 B2112,2013-05-12 03:23:00,
2013-05-11 23:28:00,66.3,65.4,29.77,NNW,330,0.0,0.0,97,0.00,,,0.05,LWC V2.00 B2112,2013-05-12 03:28:00,
2013-05-11 23:33:00,66.3,65.4,29.77,NNW,330,0.0,0.0,97,0.00,,,0.05,LWC V2.00 B2112,2013-05-12 03:33:00,
2013-05-11 23:38:00,66.1,65.2,29.77,NNW,330,0.0,0.0,97,0.00,,,0.05,LWC V2.00 B2112,2013-05-12 03:38:00,
2013-05-11 23:43:00,66.0,65.1,29.77,NNW,330,0.0,0.0,97,0.00,,,0.05,LWC V2.00 B2112,2013-05-12 03:43:00,
2013-05-11 23:48:00,66.0,65.1,29.77,NNW,330,0.0,0.0,97,0.00,,,0.05,LWC V2.00 B2112,2013-05-12 03:48:00,
2013-05-11 23:53:00,66.0,65.1,29.77,NNW,330,0.0,0.0,97,0.00,,,0.05,LWC V2.00 B2112,2013-05-12 03:53:00,
2013-05-11 23:58:00,65.8,64.9,29.75,NNW,330,0.0,0.0,97,0.00,,,0.05,LWC V2.00 B2112,2013-05-12 03:58:00,